^^

..:: Storico WU ::..




Lo storico viene creato da WUnderground con i dati che la stazione Meteomincio invia al loro server. L' aggiornamento viene fatto ogni 5 minuti circa, tuttavia possono esserci intervalli pi¨ ampi a causa di errori, interruzioni di servizio o problemi nell' invio tramite FTP.


Storico stazione MeteoMincio
Giorno Sommario per Febbario 24, 2022 Unità:  Inglese    Metrico   Entrambi
Giorno Settimana Mese Anno
  Max: Min: Media:
Temperatura: 57.6 °F 36.5 °F 45.7 °F
Dew Point: 42.1 °F 33.3 °F 37.4 °F
Umidità: 89.5% 45.6% 74%
Velocità vento: 4.5mph 0mph 1.7mph
Raffica: 8.1mph - -
Direzione- - SSE
Pressione: 30.3 in 30.1 in -
Precipitazioni: 0 in    
 
 
Tabulato Dati per Febbario 24, 2022
Ora Temperatura Dew Point Pressione Direzione Velocità vento Raffica Umidità Intensità pioggia (oraria) Info solare Situazione
00:04 43 °F 38.5 °F 30.3 in NE 4 mph 6 mph 84% 0 in 0 W/m2
00:09 43.2 °F 38.7 °F 30.3 in NE 4 mph 6 mph 84% 0 in 0 W/m2
00:14 43 °F 38.5 °F 30.3 in NE 4.5 mph 7 mph 84% 0 in 0 W/m2
00:19 42.8 °F 38.3 °F 30.3 in NE 4.3 mph 7 mph 84% 0 in 0 W/m2
00:24 42.8 °F 38.3 °F 30.3 in NE 4.3 mph 6 mph 84% 0 in 0 W/m2
00:29 42.6 °F 38.1 °F 30.3 in NE 3.2 mph 6 mph 84% 0 in 0 W/m2
00:34 42.6 °F 38.1 °F 30.3 in NE 3.5 mph 5 mph 84% 0 in 0 W/m2
00:39 42.3 °F 37.8 °F 30.3 in ENE 2.9 mph 5 mph 84% 0 in 0 W/m2
00:44 42.3 °F 37.8 °F 30.3 in NE 3.1 mph 5 mph 84% 0 in 0 W/m2
00:49 42.3 °F 37.8 °F 30.3 in NE 3.2 mph 5 mph 84% 0 in 0 W/m2
00:54 42.1 °F 37.6 °F 30.3 in NE 3 mph 5 mph 84% 0 in 0 W/m2
00:59 42.3 °F 37.6 °F 30.3 in NE 3.5 mph 4 mph 83.5% 0 in 0 W/m2
01:04 42.3 °F 37.4 °F 30.3 in NE 2.7 mph 4 mph 83.2% 0 in 0 W/m2
01:09 41.9 °F 37.4 °F 30.3 in NE 2.7 mph 4 mph 83.8% 0 in 0 W/m2
01:14 41.7 °F 37.2 °F 30.3 in NNE 3.2 mph 4 mph 84% 0 in 0 W/m2
01:19 41.7 °F 37 °F 30.3 in NE 3.3 mph 4 mph 83.6% 0 in 0 W/m2
01:24 41.7 °F 36.9 °F 30.3 in NE 3.4 mph 5 mph 83% 0 in 0 W/m2
01:29 41.7 °F 37 °F 30.3 in NE 3 mph 5 mph 83% 0 in 0 W/m2
01:34 42.1 °F 37 °F 30.3 in ENE 2.7 mph 5 mph 82.3% 0 in 0 W/m2
01:39 42.1 °F 36.9 °F 30.3 in NE 2.5 mph 5 mph 81.5% 0 in 0 W/m2
01:44 41.9 °F 36.9 °F 30.3 in ENE 2.4 mph 4 mph 82% 0 in 0 W/m2
01:49 41.7 °F 36.7 °F 30.3 in ENE 1.7 mph 4 mph 82.1% 0 in 0 W/m2
01:54 41 °F 36.3 °F 30.3 in ENE 1.7 mph 2.3 mph 83.1% 0 in 0 W/m2
01:59 40.3 °F 36 °F 30.3 in ENE 1.5 mph 2.3 mph 84.6% 0 in 0 W/m2
02:04 39.7 °F 35.8 °F 30.3 in ENE 1.8 mph 3.5 mph 85.8% 0 in 0 W/m2
02:09 39.2 °F 35.4 °F 30.3 in ENE 1.4 mph 3 mph 86.3% 0 in 0 W/m2
02:14 39 °F 35.6 °F 30.3 in ENE 0.7 mph 2 mph 87% 0 in 0 W/m2
02:19 39 °F 35.6 °F 30.3 in ENE 0.8 mph 2.3 mph 87% 0 in 0 W/m2
02:24 38.8 °F 35.4 °F 30.3 in ENE 0.2 mph 2 mph 87% 0 in 0 W/m2
02:29 38.7 °F 35.4 °F 30.3 in Calm   1 mph 88% 0 in 0 W/m2
02:34 38.5 °F 35.2 °F 30.3 in Calm   1 mph 87.8% 0 in 0 W/m2
02:39 38.5 °F 35.1 °F 30.3 in ENE 0.8 mph 2.3 mph 87.4% 0 in 0 W/m2
02:44 38.5 °F 35.2 °F 30.3 in East 1 mph 2.3 mph 88% 0 in 0 W/m2
02:49 38.5 °F 35.2 °F 30.3 in East 0.4 mph 2.3 mph 87.8% 0 in 0 W/m2
02:54 38.3 °F 34.9 °F 30.3 in Calm   2 mph 87% 0 in 0 W/m2
02:59 37.6 °F 34.2 °F 30.3 in Calm     87% 0 in 0 W/m2
03:04 37 °F 34 °F 30.3 in Calm     88.2% 0 in 0 W/m2
03:09 37.2 °F 34.2 °F 30.3 in Calm     88.8% 0 in 0 W/m2
03:14 37 °F 34.2 °F 30.3 in Calm     89% 0 in 0 W/m2
03:19 36.9 °F 34 °F 30.3 in Calm     89% 0 in 0 W/m2
03:24 37 °F 34.2 °F 30.3 in Calm     89% 0 in 0 W/m2
03:29 37.2 °F 34.3 °F 30.3 in Calm     89% 0 in 0 W/m2
03:34 37.6 °F 34.5 °F 30.3 in Calm   1.2 mph 88.6% 0 in 0 W/m2
03:39 37.8 °F 34.5 °F 30.3 in East 2 mph 5 mph 88% 0 in 0 W/m2
03:44 37.6 °F 34.3 °F 30.3 in East 2.6 mph 5 mph 88% 0 in 0 W/m2
03:49 37.4 °F 34.3 °F 30.3 in ENE 2.8 mph 5 mph 88.4% 0 in 0 W/m2
03:54 37.9 °F 34.9 °F 30.3 in East 2.9 mph 5 mph 88.5% 0 in 0 W/m2
03:59 37.9 °F 34.7 °F 30.3 in East 2.7 mph 4.6 mph 87.8% 0 in 0 W/m2
04:04 37.6 °F 34.5 °F 30.3 in East 3.6 mph 6 mph 88.2% 0 in 0 W/m2
04:09 37.6 °F 34.7 °F 30.3 in East 3.7 mph 6 mph 89% 0 in 0 W/m2
04:14 37.2 °F 34.3 °F 30.3 in ENE 3.7 mph 5 mph 89% 0 in 0 W/m2
04:19 37.2 °F 34.5 °F 30.3 in ENE 3.1 mph 5 mph 89.5% 0 in 0 W/m2
04:24 37.6 °F 34.7 °F 30.3 in ENE 2.9 mph 5 mph 89.3% 0 in 0 W/m2
04:29 37.8 °F 34.7 °F 30.3 in East 3.7 mph 5 mph 88.2% 0 in 0 W/m2
04:34 37.6 °F 34.5 °F 30.3 in ENE 3.6 mph 5 mph 88.4% 0 in 0 W/m2
04:39 37.6 °F 34.5 °F 30.3 in ENE 2.8 mph 5 mph 89% 0 in 0 W/m2
04:44 37.8 °F 34.7 °F 30.3 in ENE 2.2 mph 4 mph 88.4% 0 in 0 W/m2
04:49 38.1 °F 34.7 °F 30.3 in East 1.8 mph 3.5 mph 87.3% 0 in 0 W/m2
04:54 37.6 °F 34.3 °F 30.3 in ENE 2 mph 3.5 mph 87.4% 0 in 0 W/m2
04:59 37.6 °F 34.3 °F 30.3 in ENE 2.3 mph 4 mph 88% 0 in 0 W/m2
05:04 37.8 °F 34.3 °F 30.3 in NE 1.6 mph 4 mph 86.9% 0 in 0 W/m2
05:09 37.8 °F 34.2 °F 30.3 in NE 1.5 mph 3.5 mph 86.4% 0 in 0 W/m2
05:14 37.8 °F 34 °F 30.3 in NE 1.3 mph 3 mph 86% 0 in 0 W/m2
05:19 37.2 °F 33.8 °F 30.3 in NE 1.7 mph 3.5 mph 87.1% 0 in 0 W/m2
05:24 37.2 °F 34 °F 30.3 in NE 1.7 mph 3.5 mph 88% 0 in 0 W/m2
05:29 37.4 °F 34.2 °F 30.3 in NE 2.1 mph 3.5 mph 87.5% 0 in 0 W/m2
05:34 37.4 °F 34 °F 30.3 in NE 2.1 mph 3.5 mph 87% 0 in 0 W/m2
05:39 37.4 °F 33.8 °F 30.3 in NE 2.2 mph 4 mph 87% 0 in 0 W/m2
05:44 37.6 °F 34 °F 30.3 in NE 2.8 mph 4 mph 87% 0 in 0 W/m2
05:49 37.6 °F 33.8 °F 30.3 in ENE 2.6 mph 5 mph 86.2% 0 in 0 W/m2
05:54 37.6 °F 33.8 °F 30.3 in ENE 3.2 mph 5 mph 86.2% 0 in 0 W/m2
05:59 37.6 °F 34.2 °F 30.3 in ENE 2.7 mph 5 mph 87% 0 in 0 W/m2
06:04 37.6 °F 34 °F 30.3 in ENE 2.5 mph 5 mph 86.3% 0 in 0 W/m2
06:09 37.8 °F 34 °F 30.3 in ENE 2.2 mph 3.5 mph 86.2% 0 in 0 W/m2
06:14 37.8 °F 34 °F 30.3 in ENE 1.8 mph 3.5 mph 86% 0 in 0 W/m2
06:19 37.8 °F 34 °F 30.3 in ENE 1.9 mph 3.5 mph 86% 0 in 0 W/m2
06:24 37.8 °F 34 °F 30.3 in ENE 1.9 mph 3.5 mph 86% 0 in 0 W/m2
06:29 37.8 °F 34 °F 30.3 in ENE 1.6 mph 3 mph 86% 0 in 0 W/m2
06:34 37.4 °F 33.8 °F 30.3 in ENE 1.2 mph 2.3 mph 86.4% 0 in 0 W/m2
06:39 37.2 °F 33.6 °F 30.3 in ENE 0.4 mph 2.3 mph 87% 0 in 0 W/m2
06:44 37 °F 33.4 °F 30.3 in ENE 1.1 mph 2.3 mph 87% 0 in 0 W/m2
06:49 36.9 °F 33.6 °F 30.3 in North 1.6 mph 3.5 mph 87.8% 0 in 0 W/m2
06:54 36.5 °F 33.3 °F 30.3 in NNW 1.2 mph 3 mph 88% 0 in 0 W/m2
06:59 36.7 °F 33.4 °F 30.3 in NW 1 mph 2.3 mph 88% 0 in 5 W/m2
07:04 36.7 °F 33.3 °F 30.3 in NNW 1.6 mph 3.5 mph 87.3% 0 in 7 W/m2
07:09 36.7 °F 33.4 °F 30.3 in North 1.7 mph 3.5 mph 88% 0 in 11 W/m2
07:14 36.7 °F 33.4 °F 30.3 in NE 2.2 mph 4 mph 87.7% 0 in 14 W/m2
07:19 37.2 °F 33.6 °F 30.3 in NE 2.9 mph 4 mph 87% 0 in 16 W/m2
07:24 37.8 °F 34 °F 30.3 in NNE 2.7 mph 4 mph 86.2% 0 in 21 W/m2
07:29 37.9 °F 34 °F 30.3 in NNE 2.8 mph 4 mph 85.4% 0 in 21 W/m2
07:34 38.3 °F 34.2 °F 30.3 in NNE 2.5 mph 4 mph 85% 0 in 30 W/m2
07:39 38.5 °F 34.3 °F 30.3 in NNE 2.1 mph 4 mph 84.7% 0 in 35 W/m2
07:44 38.7 °F 34.2 °F 30.3 in NNE 1.7 mph 4 mph 84% 0 in 35 W/m2
07:49 38.8 °F 34.3 °F 30.3 in North 1.1 mph 3.5 mph 84% 0 in 42 W/m2
07:54 38.8 °F 34.5 °F 30.3 in North 0.9 mph 3 mph 84% 0 in 49 W/m2
07:59 38.8 °F 34.3 °F 30.3 in Calm   2 mph 83.8% 0 in 56 W/m2
08:04 38.7 °F 34.2 °F 30.3 in Calm   1 mph 84% 0 in 70 W/m2
08:09 38.7 °F 34.3 °F 30.3 in Calm     84.1% 0 in 84 W/m2
08:14 38.8 °F 34.7 °F 30.3 in Calm     85% 0 in 100 W/m2
08:19 39.2 °F 35.2 °F 30.3 in NE 0.7 mph 3 mph 85.3% 0 in 107 W/m2
08:24 40.5 °F 35.6 °F 30.3 in NE 2 mph 3.5 mph 83.2% 0 in 120 W/m2
08:29 41.2 °F 35.8 °F 30.3 in NE 1.4 mph 3.5 mph 80.7% 0 in 132 W/m2
08:34 41.5 °F 35.8 °F 30.3 in NE 1.1 mph 3 mph 79.8% 0 in 160 W/m2
08:39 41.5 °F 35.8 °F 30.3 in ENE 1 mph 3.5 mph 80% 0 in 160 W/m2
08:44 41.5 °F 36 °F 30.3 in ENE 1 mph 3 mph 80.7% 0 in 160 W/m2
08:49 41.7 °F 36.5 °F 30.3 in ENE 1.1 mph 2.3 mph 81.3% 0 in 174 W/m2
08:54 42.1 °F 36.9 °F 30.3 in ENE 1 mph 2.3 mph 81.5% 0 in 183 W/m2
08:59 42.6 °F 37.2 °F 30.3 in ENE 1.6 mph 3.5 mph 81.4% 0 in 186 W/m2
09:04 43 °F 37.6 °F 30.3 in ENE 1.6 mph 3.5 mph 81.1% 0 in 197 W/m2
09:09 43 °F 37.6 °F 30.3 in ENE 0.6 mph 3 mph 81% 0 in 181 W/m2
09:14 43.2 °F 37.6 °F 30.3 in ENE 0.2 mph 1.2 mph 80.6% 0 in 195 W/m2
09:19 43.5 °F 37.8 °F 30.3 in Calm   1.2 mph 80.1% 0 in 260 W/m2
09:24 44.2 °F 37.9 °F 30.3 in Calm   1 mph 78.5% 0 in 290 W/m2
09:29 45 °F 38.1 °F 30.3 in Calm   1.2 mph 76.6% 0 in 281 W/m2
09:34 45.3 °F 38.1 °F 30.3 in East 0.6 mph 2.3 mph 75.8% 0 in 258 W/m2
09:39 46 °F 38.7 °F 30.3 in East 0.6 mph 2.3 mph 75.5% 0 in 360 W/m2
09:44 46.9 °F 39 °F 30.3 in East 1.1 mph 3.5 mph 73.9% 0 in 380 W/m2
09:49 47.5 °F 39.2 °F 30.3 in ESE 1.5 mph 4 mph 72.7% 0 in 371 W/m2
09:54 47.8 °F 38.8 °F 30.3 in ESE 0.7 mph 3.5 mph 70.7% 0 in 332 W/m2
09:59 47.8 °F 39.2 °F 30.3 in SE 0.9 mph 3.5 mph 71.8% 0 in 313 W/m2
10:04 48.2 °F 39.2 °F 30.3 in East 2.5 mph 5 mph 70.6% 0 in 332 W/m2
10:09 48.4 °F 38.7 °F 30.3 in East 2 mph 5 mph 69% 0 in 327 W/m2
10:14 48.4 °F 38.3 °F 30.3 in ESE 2.5 mph 5 mph 67.8% 0 in 306 W/m2
10:19 48.7 °F 38.5 °F 30.2 in East 2.6 mph 6 mph 67.7% 0 in 383 W/m2
10:24 49.1 °F 38.8 °F 30.2 in East 2.1 mph 6 mph 67.8% 0 in 381 W/m2
10:29 49.1 °F 37.8 °F 30.2 in East 3 mph 6 mph 65.1% 0 in 239 W/m2
10:34 49.1 °F 38.3 °F 30.2 in East 2.1 mph 6 mph 66.2% 0 in 223 W/m2
10:39 49.1 °F 38.1 °F 30.2 in ENE 2.4 mph 6 mph 65.9% 0 in 230 W/m2
10:44 49.1 °F 37.6 °F 30.2 in East 2.8 mph 6 mph 64.5% 0 in 301 W/m2
10:49 49.1 °F 37.2 °F 30.2 in ESE 1.7 mph 6 mph 63.6% 0 in 420 W/m2
10:54 49.6 °F 37.9 °F 30.2 in SE 0.5 mph 4 mph 63.8% 0 in 475 W/m2
10:59 50.2 °F 37.9 °F 30.2 in SSE 0.7 mph 2.3 mph 62.7% 0 in 446 W/m2
11:04 50.4 °F 38.5 °F 30.2 in SW 2.2 mph 4 mph 63.4% 0 in 438 W/m2
11:09 50.5 °F 39.2 °F 30.2 in SW 2.2 mph 5 mph 64.9% 0 in 387 W/m2
11:14 50.5 °F 39.9 °F 30.2 in SSW 3.2 mph 5 mph 67% 0 in 450 W/m2
11:19 50.5 °F 39.7 °F 30.2 in WSW 1.9 mph 5 mph 66.6% 0 in 455 W/m2
11:24 50.7 °F 39.6 °F 30.2 in WNW 1.1 mph 4 mph 65.3% 0 in 436 W/m2
11:29 51.3 °F 39.6 °F 30.2 in NW 1.2 mph 4 mph 64.5% 0 in 482 W/m2
11:34 51.4 °F 39.4 °F 30.2 in SSW 1.9 mph 4 mph 63.7% 0 in 533 W/m2
11:39 51.4 °F 39.7 °F 30.2 in WSW 1.7 mph 4 mph 64.2% 0 in 536 W/m2
11:44 52 °F 39.6 °F 30.2 in WSW 1.3 mph 4 mph 62.4% 0 in 510 W/m2
11:49 52.3 °F 39.6 °F 30.2 in SSE 1.1 mph 4 mph 61.7% 0 in 531 W/m2
11:54 52.9 °F 39.7 °F 30.2 in SSW 0.7 mph 4 mph 61.1% 0 in 450 W/m2
11:59 53.4 °F 39.7 °F 30.2 in West 0.9 mph 3.5 mph 59.8% 0 in 587 W/m2
12:04 53.8 °F 38.8 °F 30.2 in ESE 4 mph 7 mph 56.7% 0 in 522 W/m2
12:09 53.4 °F 38.3 °F 30.2 in SE 1.8 mph 7 mph 56.5% 0 in 410 W/m2
12:14 53.8 °F 38.7 °F 30.2 in ENE 1.5 mph 4 mph 56.4% 0 in 492 W/m2
12:19 54.9 °F 40.1 °F 30.2 in NNW 1.7 mph 4 mph 57.6% 0 in 631 W/m2
12:24 54.5 °F 39.7 °F 30.2 in North 0.9 mph 3.5 mph 57.3% 0 in 575 W/m2
12:29 54.7 °F 39 °F 30.2 in East 1.3 mph 3.5 mph 55.6% 0 in 541 W/m2
12:34 54.3 °F 38.5 °F 30.2 in East 1.9 mph 5 mph 55.1% 0 in 541 W/m2
12:39 54.5 °F 39.2 °F 30.2 in SE 2.1 mph 5 mph 56.1% 0 in 475 W/m2
12:44 54.5 °F 38.8 °F 30.2 in SW 2.1 mph 4 mph 55.3% 0 in 512 W/m2
12:49 54.7 °F 39 °F 30.2 in WSW 2.3 mph 5 mph 55.7% 0 in 483 W/m2
12:54 54.9 °F 40.3 °F 30.2 in WSW 3.1 mph 6 mph 58% 0 in 483 W/m2
12:59 54.9 °F 41 °F 30.2 in SW 3.7 mph 7 mph 59.5% 0 in 573 W/m2
13:04 55.4 °F 40.8 °F 30.2 in NW 2.5 mph 7 mph 58.2% 0 in 603 W/m2
13:09 55.8 °F 41.5 °F 30.2 in WNW 1.2 mph 6 mph 59.1% 0 in 489 W/m2
13:14 55.8 °F 40.6 °F 30.2 in WNW 1 mph 3.5 mph 56.7% 0 in 445 W/m2
13:19 55.8 °F 40.8 °F 30.2 in West 3 mph 6 mph 57.1% 0 in 429 W/m2
13:24 55.6 °F 39.9 °F 30.2 in West 2.1 mph 4.6 mph 55.6% 0 in 418 W/m2
13:29 55.4 °F 39.6 °F 30.2 in West 1.9 mph 5 mph 55.1% 0 in 422 W/m2
13:34 55.8 °F 39.7 °F 30.2 in WSW 2.3 mph 6 mph 54.8% 0 in 438 W/m2
13:39 55.8 °F 39.9 °F 30.2 in WSW 1.8 mph 6 mph 55.2% 0 in 348 W/m2
13:44 55.9 °F 40.1 °F 30.2 in West 2.2 mph 4 mph 55% 0 in 334 W/m2
13:49 56.1 °F 40.3 °F 30.2 in West 0.9 mph 4 mph 55.2% 0 in 390 W/m2
13:54 56.5 °F 39.4 °F 30.2 in NNE 1.9 mph 5 mph 52.8% 0 in 385 W/m2
13:59 56.5 °F 38.1 °F 30.2 in NE 1.5 mph 5 mph 50.1% 0 in 436 W/m2
14:04 56.3 °F 37.9 °F 30.2 in SSW 0.6 mph 3 mph 50.2% 0 in 388 W/m2
14:09 56.5 °F 38.1 °F 30.2 in ESE 2.2 mph 5 mph 49.9% 0 in 295 W/m2
14:14 56.5 °F 37.9 °F 30.2 in ESE 2.5 mph 5 mph 49.9% 0 in 436 W/m2
14:19 56.5 °F 38.3 °F 30.2 in ENE 0.8 mph 5 mph 50.4% 0 in 413 W/m2
14:24 56.7 °F 38.7 °F 30.1 in ENE 0.4 mph 3.5 mph 50.9% 0 in 401 W/m2
14:29 57 °F 40.3 °F 30.1 in South 2.9 mph 6 mph 53.4% 0 in 455 W/m2
14:34 57 °F 40.6 °F 30.1 in SSE 1.8 mph 6 mph 54.4% 0 in 420 W/m2
14:39 56.8 °F 39.6 °F 30.1 in ESE 1.2 mph 7 mph 52.5% 0 in 373 W/m2
14:44 57.4 °F 38.8 °F 30.1 in East 2.7 mph 7 mph 50.1% 0 in 448 W/m2
14:49 57.4 °F 39.2 °F 30.1 in East 3 mph 8 mph 50.5% 0 in 406 W/m2
14:54 57.4 °F 39 °F 30.1 in ESE 2.6 mph 8.1 mph 50.6% 0 in 348 W/m2
14:59 57.4 °F 39.4 °F 30.1 in SE 2.6 mph 6 mph 51.2% 0 in 359 W/m2
15:04 57.4 °F 38.7 °F 30.1 in ESE 3 mph 6 mph 49.7% 0 in 410 W/m2
15:09 57.4 °F 38.7 °F 30.1 in ENE 1.9 mph 7 mph 49.7% 0 in 425 W/m2
15:14 57.6 °F 38.7 °F 30.1 in East 3.7 mph 7 mph 49.3% 0 in 473 W/m2
15:19 57.6 °F 38.8 °F 30.1 in SE 2.2 mph 7 mph 49.6% 0 in 432 W/m2
15:24 57.6 °F 37.4 °F 30.1 in ESE 2.2 mph 5 mph 47.1% 0 in 220 W/m2
15:29 57.2 °F 37.2 °F 30.1 in ESE 3.4 mph 8.1 mph 47.2% 0 in 299 W/m2
15:34 57.4 °F 37.8 °F 30.1 in ESE 2.8 mph 8 mph 48% 0 in 311 W/m2
15:39 57.2 °F 36.3 °F 30.1 in East 1.2 mph 5 mph 45.6% 0 in 232 W/m2
15:44 57 °F 36.7 °F 30.1 in South 0.8 mph 3 mph 46.5% 0 in 162 W/m2
15:49 57 °F 37.4 °F 30.1 in SSE 0.7 mph 3 mph 47.8% 0 in 251 W/m2
15:54 57.4 °F 38.3 °F 30.1 in ENE 2.5 mph 6 mph 49.1% 0 in 246 W/m2
15:59 57.4 °F 38.5 °F 30.1 in NNE 0.9 mph 6 mph 49.2% 0 in 188 W/m2
16:04 57.2 °F 38.8 °F 30.1 in NW 0.4 mph 2.3 mph 50.1% 0 in 139 W/m2
16:09 57 °F 38.5 °F 30.1 in SSW 0.6 mph 2.3 mph 49.6% 0 in 120 W/m2
16:14 56.8 °F 38.3 °F 30.1 in SSW 0.1 mph 2 mph 49.9% 0 in 104 W/m2
16:19 56.7 °F 38.7 °F 30.1 in South 0.1 mph 1.2 mph 50.7% 0 in 107 W/m2
16:24 56.8 °F 39.6 °F 30.1 in SW 0.6 mph 3.5 mph 52.7% 0 in 109 W/m2
16:29 57 °F 40.1 °F 30.1 in SW 1.2 mph 3 mph 53.2% 0 in 109 W/m2
16:34 57 °F 40.6 °F 30.1 in SW 1.8 mph 3.5 mph 54.2% 0 in 97 W/m2
16:39 56.8 °F 40.6 °F 30.1 in WSW 2.5 mph 4 mph 54.8% 0 in 83 W/m2
16:44 56.5 °F 41.4 °F 30.1 in WSW 2 mph 4 mph 56.9% 0 in 67 W/m2
16:49 56.3 °F 41.2 °F 30.1 in WSW 1.7 mph 3.5 mph 56.8% 0 in 72 W/m2
16:54 56.1 °F 41.4 °F 30.1 in WSW 2.4 mph 4 mph 57.3% 0 in 74 W/m2
16:59 55.9 °F 42.1 °F 30.1 in WSW 2.3 mph 4 mph 59.2% 0 in 107 W/m2
17:04 56.1 °F 41.7 °F 30.1 in SW 2.2 mph 4 mph 58.5% 0 in 128 W/m2
17:09 56.3 °F 41.7 °F 30.1 in WSW 2.9 mph 5 mph 57.8% 0 in 139 W/m2
17:14 56.5 °F 41.7 °F 30.1 in SW 2.4 mph 5 mph 57.6% 0 in 132 W/m2
17:19 56.5 °F 41.7 °F 30.1 in SW 2.4 mph 4 mph 57.5% 0 in 105 W/m2
17:24 56.3 °F 41.4 °F 30.1 in SW 2.6 mph 5 mph 57.3% 0 in 65 W/m2
17:29 56.1 °F 41.2 °F 30.1 in SW 1.6 mph 3.5 mph 57.3% 0 in 39 W/m2
17:34 55.6 °F 41.5 °F 30.1 in SW 1.1 mph 3.5 mph 58.9% 0 in 25 W/m2
17:39 55.2 °F 41.7 °F 30.1 in SW 1.8 mph 3.5 mph 60.4% 0 in 19 W/m2
17:44 54.5 °F 41.5 °F 30.1 in WSW 1.8 mph 4 mph 61.6% 0 in 18 W/m2
17:49 53.8 °F 41.5 °F 30.1 in SW 0.9 mph 4 mph 63% 0 in 12 W/m2
17:54 53.2 °F 41.4 °F 30.1 in SW 1 mph 3 mph 64% 0 in 9 W/m2
17:59 52.7 °F 41.4 °F 30.1 in SW 0.9 mph 2.3 mph 65.1% 0 in 0 W/m2
18:04 52.2 °F 41 °F 30.1 in SW 1.2 mph 2.3 mph 65.7% 0 in 0 W/m2
18:09 51.8 °F 41 °F 30.1 in SW 1.2 mph 2.3 mph 66.5% 0 in 0 W/m2
18:14 51.4 °F 41 °F 30.1 in SW 0.6 mph 2.3 mph 67.2% 0 in 0 W/m2
18:19 51.1 °F 41 °F 30.1 in Calm   2 mph 68.2% 0 in 0 W/m2
18:24 50.7 °F 40.8 °F 30.1 in Calm     68.8% 0 in 0 W/m2
18:29 50.4 °F 41 °F 30.1 in Calm     70% 0 in 0 W/m2
18:34 50.2 °F 41 °F 30.1 in Calm     70.5% 0 in 0 W/m2
18:39 49.8 °F 40.8 °F 30.1 in Calm     70.8% 0 in 0 W/m2
18:44 49.1 °F 40.3 °F 30.1 in Calm     71.3% 0 in 0 W/m2
18:49 48.9 °F 40.3 °F 30.1 in Calm     72% 0 in 0 W/m2
18:54 48.7 °F 40.3 °F 30.1 in Calm     72.4% 0 in 0 W/m2
18:59 48.6 °F 40.3 °F 30.1 in Calm     73.2% 0 in 0 W/m2
19:04 48.4 °F 40.1 °F 30.1 in Calm     73.2% 0 in 0 W/m2
19:09 48 °F 40.3 °F 30.1 in Calm     74.2% 0 in 0 W/m2
19:14 47.8 °F 39.9 °F 30.1 in Calm     74% 0 in 0 W/m2
19:19 47.3 °F 39.7 °F 30.1 in Calm     74.5% 0 in 0 W/m2
19:24 46.9 °F 39.7 °F 30.1 in Calm     75.8% 0 in 0 W/m2
19:29 46.9 °F 39.6 °F 30.1 in Calm     75.3% 0 in 0 W/m2
19:34 46.8 °F 39.2 °F 30.1 in Calm     75% 0 in 0 W/m2
19:39 46.6 °F 39 °F 30.1 in Calm     75.1% 0 in 0 W/m2
19:44 46.2 °F 39.2 °F 30.1 in Calm     76% 0 in 0 W/m2
19:49 46 °F 39 °F 30.1 in Calm     76% 0 in 0 W/m2
19:54 45.7 °F 38.8 °F 30.1 in Calm     76.9% 0 in 0 W/m2
19:59 45.3 °F 38.8 °F 30.1 in Calm     78% 0 in 0 W/m2
20:04 45.1 °F 38.7 °F 30.1 in Calm     78% 0 in 0 W/m2
20:09 44.8 °F 38.3 °F 30.1 in Calm     78% 0 in 0 W/m2
20:14 44.2 °F 37.9 °F 30.1 in Calm   2 mph 78.7% 0 in 0 W/m2
20:19 44.4 °F 38.1 °F 30.1 in West 2 mph 3.5 mph 78.6% 0 in 0 W/m2
20:24 44.6 °F 38.1 °F 30.1 in West 2.4 mph 3.5 mph 78% 0 in 0 W/m2
20:29 44.2 °F 37.9 °F 30.1 in West 1.8 mph 3.5 mph 78% 0 in 0 W/m2
20:34 43.7 °F 37.4 °F 30.1 in West 2.1 mph 3.5 mph 78.8% 0 in 0 W/m2
20:39 43.3 °F 37.2 °F 30.1 in West 2 mph 3.5 mph 79% 0 in 0 W/m2
20:44 43.3 °F 37.4 °F 30.1 in West 1.9 mph 3.5 mph 79.4% 0 in 0 W/m2
20:49 43.3 °F 37.8 °F 30.1 in WNW 2.1 mph 3.5 mph 80.5% 0 in 0 W/m2
20:54 43.5 °F 37.9 °F 30.1 in WNW 1.2 mph 3 mph 80.6% 0 in 0 W/m2
20:59 43.3 °F 37.8 °F 30.1 in WNW 0.7 mph 2.3 mph 80.2% 0 in 0 W/m2
21:04 43 °F 37.4 °F 30.1 in WNW 0.4 mph 2 mph 80.5% 0 in 0 W/m2
21:09 42.6 °F 37.2 °F 30.1 in WNW 0.9 mph 2.3 mph 81% 0 in 0 W/m2
21:14 42.4 °F 37 °F 30.1 in WNW 0.4 mph 2 mph 81% 0 in 0 W/m2
21:19 41.9 °F 36.9 °F 30.1 in SW 0.9 mph 2.3 mph 82.2% 0 in 0 W/m2
21:24 41.5 °F 36.9 °F 30.1 in SW 1 mph 3.5 mph 83% 0 in 0 W/m2
21:29 41.4 °F 36.5 °F 30.1 in SW 2.2 mph 3.5 mph 83% 0 in 0 W/m2
21:34 41.5 °F 36.7 °F 30.1 in WSW 0.7 mph 3 mph 83% 0 in 0 W/m2
21:39 41.5 °F 36.7 °F 30.1 in WSW 0.3 mph 2 mph 83% 0 in 0 W/m2
21:44 41.2 °F 36.7 °F 30.1 in WSW 0.1 mph 1.2 mph 83.7% 0 in 0 W/m2
21:49 41.4 °F 36.7 °F 30.1 in WSW 0.1 mph 1.2 mph 83.3% 0 in 0 W/m2
21:54 41.4 °F 36.7 °F 30.1 in West 1.1 mph 3.5 mph 83.6% 0 in 0 W/m2
21:59 41.2 °F 36.3 °F 30.1 in SW 2.2 mph 4 mph 83.1% 0 in 0 W/m2
22:04 41.4 °F 36.7 °F 30.1 in SW 2.3 mph 4 mph 83.6% 0 in 0 W/m2
22:09 41.5 °F 36.9 °F 30.1 in SW 2.7 mph 4 mph 82.9% 0 in 0 W/m2
22:14 41.7 °F 36.7 °F 30.1 in SSW 2.7 mph 4 mph 82.2% 0 in 0 W/m2
22:19 41.9 °F 36.9 °F 30.1 in SSW 2.6 mph 5 mph 82.1% 0 in 0 W/m2
22:24 42.1 °F 36.9 °F 30.1 in SSW 2 mph 5 mph 81.3% 0 in 0 W/m2
22:29 41.9 °F 36.9 °F 30.1 in SW 2.4 mph 3.5 mph 82% 0 in 0 W/m2
22:34 41.7 °F 36.7 °F 30.1 in SW 2.1 mph 3.5 mph 82% 0 in 0 W/m2
22:39 41.2 °F 36.1 °F 30.1 in SW 1.6 mph 3 mph 82% 0 in 0 W/m2
22:44 40.8 °F 36 °F 30.1 in SW 1.6 mph 3.5 mph 82.8% 0 in 0 W/m2
22:49 40.3 °F 35.6 °F 30.1 in SW 2.1 mph 3.5 mph 83.1% 0 in 0 W/m2
22:54 40.3 °F 35.8 °F 30.1 in SW 2.2 mph 3.5 mph 84% 0 in 0 W/m2
22:59 40.5 °F 36 °F 30.1 in SW 2.1 mph 3.5 mph 84% 0 in 0 W/m2
23:04 40.5 °F 36 °F 30.1 in WSW 2.3 mph 3.5 mph 84% 0 in 0 W/m2
23:09 40.1 °F 35.8 °F 30.1 in SW 2 mph 3.5 mph 84% 0 in 0 W/m2
23:14 40.1 °F 35.6 °F 30.1 in SW 0.7 mph 3.5 mph 84% 0 in 0 W/m2
23:19 40.1 °F 35.6 °F 30.1 in WSW 1.7 mph 4 mph 84% 0 in 0 W/m2
23:24 39.7 °F 35.4 °F 30.1 in WSW 2.9 mph 4 mph 84% 0 in 0 W/m2
23:29 39.2 °F 35.1 °F 30.1 in WSW 2.7 mph 4 mph 84.9% 0 in 0 W/m2
23:34 39.2 °F 35.2 °F 30.1 in WSW 2.4 mph 4 mph 85.2% 0 in 0 W/m2
23:39 39.2 °F 35.4 °F 30.1 in West 2.4 mph 4 mph 85.8% 0 in 0 W/m2
23:44 39.2 °F 35.4 °F 30.1 in West 3.1 mph 4 mph 85.7% 0 in 0 W/m2
23:49 39.2 °F 35.2 °F 30.1 in West 2.9 mph 4 mph 85.8% 0 in 0 W/m2
23:54 39 °F 35.1 °F 30.1 in West 2.2 mph 4 mph 85.6% 0 in 0 W/m2
23:59 38.5 °F 34.5 °F 30.1 in West 2.6 mph 4 mph 86% 0 in 0 W/m2
Stazione Meteorologica MeteoMincio Rivalta s/M (MN)
Con i complimenti di Weather Underground - 4 mb


METEO PILLOLE
L'uragano più violento
Galveston - Texas
Nel 1900 un uragano spazza l'isola con venti oltre 160 Km/h e provoca un onda alta oltre 6 m. Si valuta che siano morte 8000 persone.

Do NOT follow this link or you will be banned from the site!